createdAt,value
2019-01-27T00:02:24.428Z,97252.40
2019-01-27T00:04:51.864Z,97250.13
2019-01-27T00:07:19.298Z,97243.84
2019-01-27T00:09:47.802Z,97239.91
2019-01-27T00:12:16.168Z,97228.17
2019-01-27T00:14:43.596Z,97222.76
2019-01-27T00:17:11.197Z,97213.70
2019-01-27T00:19:38.714Z,97211.30
2019-01-27T00:22:06.147Z,97202.45
2019-01-27T00:24:33.638Z,97201.63
2019-01-27T00:27:01.122Z,97199.34
2019-01-27T00:29:28.582Z,97194.00
2019-01-27T00:31:56.033Z,97183.97
2019-01-27T00:34:23.631Z,97175.81
2019-01-27T00:36:51.128Z,97172.66
2019-01-27T00:39:20.074Z,97169.89
2019-01-27T00:41:48.347Z,97159.31
2019-01-27T00:44:16.339Z,97156.63
2019-01-27T00:46:44.036Z,97160.05
2019-01-27T00:49:11.605Z,97160.53
2019-01-27T00:51:39.116Z,97152.75
2019-01-27T00:54:06.660Z,97157.68
2019-01-27T00:56:34.274Z,97144.81
2019-01-27T00:59:01.909Z,97137.64
2019-01-27T01:01:29.407Z,97138.45
2019-01-27T01:03:56.885Z,97128.34
2019-01-27T01:06:24.466Z,97125.47
2019-01-27T01:08:52.222Z,97121.97
2019-01-27T01:11:19.724Z,97117.64
2019-01-27T01:13:47.170Z,97107.34
2019-01-27T01:16:14.587Z,97109.75
2019-01-27T01:18:42.096Z,97106.02
2019-01-27T01:21:09.557Z,97102.63
2019-01-27T01:23:36.982Z,97102.17
2019-01-27T01:26:04.754Z,97101.39
2019-01-27T01:28:32.221Z,97095.97
2019-01-27T01:30:59.680Z,97088.56
2019-01-27T01:33:27.176Z,97085.06
2019-01-27T01:35:55.752Z,97075.06
2019-01-27T01:38:23.230Z,97075.92
2019-01-27T01:40:50.688Z,97072.64
2019-01-27T01:43:18.204Z,97066.94
2019-01-27T01:45:46.035Z,97061.77
2019-01-27T01:48:13.907Z,97058.00
2019-01-27T01:50:41.377Z,97049.70
2019-01-27T01:53:09.072Z,97054.74
2019-01-27T01:55:36.536Z,97049.89
2019-01-27T01:58:03.998Z,97043.60
2019-01-27T02:00:31.428Z,97032.05
2019-01-27T02:02:58.883Z,97023.99
2019-01-27T02:05:26.300Z,97028.80
2019-01-27T02:07:53.803Z,97027.66
2019-01-27T02:10:21.215Z,97026.61
2019-01-27T02:12:48.840Z,97021.83
2019-01-27T02:15:19.929Z,97018.50
2019-01-27T02:17:47.680Z,97000.64
2019-01-27T02:20:15.106Z,96998.50
2019-01-27T02:22:42.539Z,96988.67
2019-01-27T02:25:09.980Z,96994.92
2019-01-27T02:27:37.486Z,96971.62
2019-01-27T02:30:05.120Z,96955.94
2019-01-27T02:32:32.543Z,96949.31
2019-01-27T02:34:59.972Z,96939.56
2019-01-27T02:37:27.570Z,96942.67
2019-01-27T02:39:55.157Z,96941.44
2019-01-27T02:42:22.727Z,96926.83
2019-01-27T02:44:50.678Z,96935.63
2019-01-27T02:47:18.465Z,96928.36
2019-01-27T02:49:45.910Z,96914.76
2019-01-27T02:52:13.649Z,96910.89
2019-01-27T02:54:42.040Z,96901.17
2019-01-27T02:57:09.769Z,96894.33
2019-01-27T02:59:37.209Z,96885.88
2019-01-27T03:02:04.677Z,96886.77
2019-01-27T03:04:32.109Z,96877.97
2019-01-27T03:06:59.627Z,96873.25
2019-01-27T03:09:27.085Z,96873.95
2019-01-27T03:11:54.554Z,96875.84
2019-01-27T03:14:21.992Z,96859.97
2019-01-27T03:16:49.585Z,96865.34
2019-01-27T03:19:18.106Z,96853.48
2019-01-27T03:21:45.864Z,96859.46
2019-01-27T03:24:13.295Z,96850.33
2019-01-27T03:26:41.282Z,96850.56
2019-01-27T03:29:08.732Z,96859.94
2019-01-27T03:31:36.213Z,96844.99
2019-01-27T03:34:03.650Z,96833.45
2019-01-27T03:36:31.275Z,96833.88
2019-01-27T03:38:58.741Z,96830.34
2019-01-27T03:41:26.217Z,96826.26
2019-01-27T03:43:53.812Z,96827.67
2019-01-27T03:46:21.863Z,96822.81
2019-01-27T03:48:49.367Z,96813.79
2019-01-27T03:51:16.817Z,96804.11
2019-01-27T03:53:44.296Z,96797.45
2019-01-27T03:56:11.727Z,96801.27
2019-01-27T03:58:39.399Z,96808.80
2019-01-27T04:01:07.271Z,96798.95
2019-01-27T04:03:34.946Z,96796.17
2019-01-27T04:06:02.470Z,96792.03
2019-01-27T04:08:29.947Z,96782.83
2019-01-27T04:10:57.436Z,96778.03
2019-01-27T04:13:24.891Z,96774.89
2019-01-27T04:15:52.720Z,96770.61
2019-01-27T04:18:20.173Z,96752.49
2019-01-27T04:20:47.601Z,96742.36
2019-01-27T04:23:15.070Z,96743.03
2019-01-27T04:25:42.832Z,96742.92
2019-01-27T04:28:11.491Z,96734.92
2019-01-27T04:30:37.923Z,96736.73
2019-01-27T04:33:05.380Z,96730.83
2019-01-27T04:35:32.886Z,96719.93
2019-01-27T04:38:00.367Z,96722.82
2019-01-27T04:40:27.830Z,96726.78
2019-01-27T04:42:55.350Z,96727.43
2019-01-27T04:45:23.555Z,96714.84
2019-01-27T04:47:51.030Z,96712.77
2019-01-27T04:50:18.510Z,96709.58
2019-01-27T04:52:45.983Z,96716.41
2019-01-27T04:55:16.359Z,96703.88
2019-01-27T04:57:43.829Z,96704.30
2019-01-27T05:00:12.953Z,96696.27
2019-01-27T05:02:40.423Z,96698.51
2019-01-27T05:05:08.948Z,96695.78
2019-01-27T05:07:36.483Z,96684.61
2019-01-27T05:10:03.900Z,96677.02
2019-01-27T05:12:31.335Z,96689.11
2019-01-27T05:14:58.812Z,96684.67
2019-01-27T05:17:26.247Z,96673.55
2019-01-27T05:19:53.777Z,96681.21
2019-01-27T05:22:21.217Z,96690.52
2019-01-27T05:24:48.665Z,96680.16
2019-01-27T05:27:17.726Z,96674.77
2019-01-27T05:29:45.239Z,96665.06
2019-01-27T05:32:12.691Z,96669.77
2019-01-27T05:34:40.172Z,96668.76
2019-01-27T05:37:07.639Z,96656.33
2019-01-27T05:39:35.104Z,96656.00
2019-01-27T05:42:02.544Z,96647.00
2019-01-27T05:44:30.029Z,96648.98
2019-01-27T05:46:57.519Z,96642.07
2019-01-27T05:49:24.952Z,96632.67
2019-01-27T05:51:52.401Z,96628.49
2019-01-27T05:54:20.229Z,96627.75
2019-01-27T05:56:47.387Z,96625.42
2019-01-27T05:59:14.847Z,96624.59
2019-01-27T06:01:42.320Z,96623.23
2019-01-27T06:04:09.771Z,96611.18
2019-01-27T06:06:37.248Z,96611.91
2019-01-27T06:09:04.727Z,96602.28
2019-01-27T06:11:32.164Z,96601.93
2019-01-27T06:13:59.611Z,96608.70
2019-01-27T06:16:27.071Z,96601.28
2019-01-27T06:18:55.002Z,96595.52
2019-01-27T06:21:22.449Z,96594.34
2019-01-27T06:23:50.822Z,96590.32
2019-01-27T06:26:18.424Z,96582.27
2019-01-27T06:28:45.929Z,96578.05
2019-01-27T06:31:13.375Z,96577.02
2019-01-27T06:33:40.822Z,96576.95
2019-01-27T06:36:08.322Z,96569.63
2019-01-27T06:38:35.791Z,96574.83
2019-01-27T06:41:03.270Z,96569.10
2019-01-27T06:43:30.763Z,96577.77
2019-01-27T06:45:58.544Z,96579.11
2019-01-27T06:48:26.099Z,96585.16
2019-01-27T06:50:53.539Z,96576.83
2019-01-27T06:53:21.010Z,96581.20
2019-01-27T06:55:48.487Z,96570.98
2019-01-27T06:58:16.208Z,96570.59
2019-01-27T07:00:49.117Z,96565.25
2019-01-27T07:03:20.357Z,96558.81
2019-01-27T07:05:47.832Z,96558.30
2019-01-27T07:08:32.918Z,96560.38
2019-01-27T07:11:05.830Z,96548.83
2019-01-27T07:13:33.791Z,96559.02
2019-01-27T07:16:16.167Z,96557.47
2019-01-27T07:18:58.546Z,96554.34
2019-01-27T07:21:33.580Z,96555.98
2019-01-27T07:24:06.995Z,96551.69
2019-01-27T07:26:34.486Z,96547.87
2019-01-27T07:29:04.503Z,96553.64
2019-01-27T07:31:46.852Z,96548.09
2019-01-27T07:34:19.118Z,96557.47
2019-01-27T07:36:53.108Z,96549.27
2019-01-27T07:39:36.325Z,96542.53
2019-01-27T07:42:04.152Z,96532.98
2019-01-27T07:44:37.169Z,96534.08
2019-01-27T07:47:04.632Z,96528.36
2019-01-27T07:49:37.048Z,96525.97
2019-01-27T07:52:08.926Z,96522.64
2019-01-27T07:54:36.358Z,96524.36
2019-01-27T07:57:19.601Z,96522.53
2019-01-27T07:59:51.574Z,96522.88
2019-01-27T08:02:33.916Z,96526.73
2019-01-27T08:05:18.129Z,96522.28
2019-01-27T08:07:51.041Z,96520.56
2019-01-27T08:10:24.087Z,96511.28
2019-01-27T08:13:06.432Z,96518.66
2019-01-27T08:15:50.609Z,96500.55
2019-01-27T08:18:18.053Z,96499.15
2019-01-27T08:20:47.021Z,96498.89
2019-01-27T08:23:14.502Z,96506.49
2019-01-27T08:25:42.432Z,96506.30
2019-01-27T08:28:24.910Z,96501.37
2019-01-27T08:30:55.152Z,96501.02
2019-01-27T08:33:29.121Z,96493.23
2019-01-27T08:35:59.020Z,96501.66
2019-01-27T08:38:37.296Z,96495.13
2019-01-27T08:41:14.678Z,96491.77
2019-01-27T08:43:43.540Z,96489.45
2019-01-27T08:46:11.000Z,96488.39
2019-01-27T08:48:38.435Z,96491.03
2019-01-27T08:51:05.986Z,96487.23
2019-01-27T08:53:34.181Z,96489.71
2019-01-27T08:56:01.960Z,96494.20
2019-01-27T08:58:29.405Z,96483.42
2019-01-27T09:00:56.902Z,96477.34
2019-01-27T09:03:27.713Z,96476.01
2019-01-27T09:05:55.937Z,96480.55
2019-01-27T09:08:24.502Z,96475.22
2019-01-27T09:10:53.657Z,96483.73
2019-01-27T09:13:23.604Z,96480.04
2019-01-27T09:15:58.463Z,96483.07
2019-01-27T09:18:31.722Z,96470.78
2019-01-27T09:21:01.548Z,96468.91
2019-01-27T09:23:29.917Z,96471.73
2019-01-27T09:26:17.143Z,96462.48
2019-01-27T09:28:47.755Z,96460.39
2019-01-27T09:31:17.000Z,96467.69
2019-01-27T09:33:47.971Z,96467.56
2019-01-27T09:36:31.936Z,96465.42
2019-01-27T09:39:15.086Z,96461.20
2019-01-27T09:41:48.222Z,96462.70
2019-01-27T09:44:16.741Z,96463.22
2019-01-27T09:46:56.837Z,96457.97
2019-01-27T09:49:35.457Z,96442.00
2019-01-27T09:52:04.140Z,96455.30
2019-01-27T09:54:33.469Z,96456.73
2019-01-27T09:57:15.791Z,96449.72
2019-01-27T09:59:58.148Z,96443.67
2019-01-27T10:02:38.246Z,96445.09
2019-01-27T10:05:05.683Z,96446.50
2019-01-27T10:07:33.490Z,96444.70
2019-01-27T10:10:06.471Z,96451.86
2019-01-27T10:12:37.319Z,96449.52
2019-01-27T10:15:09.689Z,96451.39
2019-01-27T10:17:42.787Z,96442.28
2019-01-27T10:20:10.657Z,96451.92
2019-01-27T10:22:54.847Z,96457.69
2019-01-27T10:25:24.734Z,96448.66
2019-01-27T10:28:02.159Z,96447.13
2019-01-27T10:30:30.042Z,96442.95
2019-01-27T10:33:02.911Z,96429.87
2019-01-27T10:35:30.356Z,96421.42
2019-01-27T10:38:07.738Z,96424.10
2019-01-27T10:40:39.854Z,96428.25
2019-01-27T10:43:05.470Z,96420.27
2019-01-27T10:45:38.469Z,96420.98
2019-01-27T10:48:21.340Z,96420.11
2019-01-27T10:50:49.747Z,96412.69
2019-01-27T10:53:27.113Z,96412.65
2019-01-27T10:55:54.585Z,96408.63
2019-01-27T10:58:32.748Z,96416.97
2019-01-27T11:01:16.081Z,96403.03
2019-01-27T11:03:47.284Z,96402.86
2019-01-27T11:06:16.008Z,96395.78
2019-01-27T11:08:43.882Z,96397.66
2019-01-27T11:11:14.825Z,96391.61
2019-01-27T11:13:48.026Z,96409.09
2019-01-27T11:16:21.839Z,96390.92
2019-01-27T11:18:59.198Z,96400.02
2019-01-27T11:21:28.174Z,96394.44
2019-01-27T11:24:09.245Z,96387.06
2019-01-27T11:26:46.605Z,96396.72
2019-01-27T11:29:14.996Z,96388.28
2019-01-27T11:31:57.333Z,96384.91
2019-01-27T11:34:42.476Z,96386.42
2019-01-27T11:37:15.587Z,96377.31
2019-01-27T11:39:43.974Z,96384.20
2019-01-27T11:42:16.917Z,96369.80
2019-01-27T11:44:49.885Z,96365.84
2019-01-27T11:47:17.805Z,96359.76
2019-01-27T11:49:45.313Z,96362.03
2019-01-27T11:52:15.645Z,96362.07
2019-01-27T11:54:40.389Z,96357.89
2019-01-27T11:57:07.941Z,96355.77
2019-01-27T11:59:35.389Z,96348.01
2019-01-27T12:02:02.815Z,96351.00
2019-01-27T12:04:30.301Z,96344.00
2019-01-27T12:06:57.831Z,96352.62
2019-01-27T12:09:25.302Z,96352.88
2019-01-27T12:11:52.773Z,96350.95
2019-01-27T12:14:20.221Z,96351.52
2019-01-27T12:16:47.717Z,96349.95
2019-01-27T12:19:15.185Z,96349.11
2019-01-27T12:21:42.649Z,96340.91
2019-01-27T12:24:10.119Z,96337.44
2019-01-27T12:26:37.567Z,96348.33
2019-01-27T12:29:05.011Z,96350.45
2019-01-27T12:31:32.517Z,96347.69
2019-01-27T12:33:59.955Z,96351.59
2019-01-27T12:36:27.392Z,96357.64
2019-01-27T12:38:54.877Z,96348.16
2019-01-27T12:41:22.342Z,96341.16
2019-01-27T12:43:49.795Z,96343.20
2019-01-27T12:46:17.231Z,96344.05
2019-01-27T12:48:44.707Z,96328.44
2019-01-27T12:51:12.160Z,96327.09
2019-01-27T12:53:39.634Z,96333.02
2019-01-27T12:56:07.119Z,96326.95
2019-01-27T12:58:34.572Z,96328.95
2019-01-27T13:01:02.443Z,96324.47
2019-01-27T13:03:29.925Z,96313.78
2019-01-27T13:05:57.415Z,96321.39
2019-01-27T13:08:25.944Z,96316.38
2019-01-27T13:10:52.322Z,96326.47
2019-01-27T13:13:19.771Z,96323.74
2019-01-27T13:15:47.299Z,96330.36
2019-01-27T13:18:14.833Z,96323.05
2019-01-27T13:20:42.271Z,96335.01
2019-01-27T13:23:09.732Z,96325.96
2019-01-27T13:25:37.165Z,96336.50
2019-01-27T13:28:04.689Z,96337.23
2019-01-27T13:30:33.003Z,96332.32
2019-01-27T13:33:03.262Z,96330.29
2019-01-27T13:35:27.969Z,96328.74
2019-01-27T13:37:55.478Z,96329.97
2019-01-27T13:40:22.949Z,96323.50
2019-01-27T13:42:50.388Z,96321.73
2019-01-27T13:45:21.363Z,96327.09
2019-01-27T13:47:48.785Z,96330.15
2019-01-27T13:50:16.333Z,96326.78
2019-01-27T13:52:43.778Z,96325.14
2019-01-27T13:55:16.992Z,96319.45
2019-01-27T13:57:44.426Z,96318.62
2019-01-27T14:00:13.784Z,96320.59
2019-01-27T14:02:41.280Z,96320.30
2019-01-27T14:05:09.546Z,96326.07
2019-01-27T14:07:37.033Z,96316.27
2019-01-27T14:10:05.417Z,96321.80
2019-01-27T14:12:35.664Z,96317.69
2019-01-27T14:15:03.821Z,96316.15
2019-01-27T14:17:31.254Z,96321.86
2019-01-27T14:19:58.718Z,96313.95
2019-01-27T14:22:26.181Z,96322.94
2019-01-27T14:24:53.664Z,96323.28
2019-01-27T14:27:21.127Z,96324.19
2019-01-27T14:29:48.543Z,96321.25
2019-01-27T14:32:16.278Z,96326.20
2019-01-27T14:34:43.749Z,96322.25
2019-01-27T14:37:11.184Z,96321.68
2019-01-27T14:39:38.644Z,96329.09
2019-01-27T14:42:07.113Z,96334.11
2019-01-27T14:44:34.571Z,96338.17
2019-01-27T14:47:02.030Z,96348.64
2019-01-27T14:49:30.509Z,96336.41
2019-01-27T14:51:58.051Z,96336.05
2019-01-27T14:54:25.521Z,96338.78
2019-01-27T14:56:52.966Z,96342.33
2019-01-27T14:59:20.444Z,96345.17
2019-01-27T15:01:47.905Z,96338.42
2019-01-27T15:04:15.364Z,96343.06
2019-01-27T15:06:42.802Z,96361.36
2019-01-27T15:09:10.277Z,96357.13
2019-01-27T15:11:37.711Z,96357.36
2019-01-27T15:14:05.156Z,96350.43
2019-01-27T15:16:32.800Z,96358.24
2019-01-27T15:19:00.220Z,96353.77
2019-01-27T15:21:27.704Z,96364.23
2019-01-27T15:23:55.127Z,96356.02
2019-01-27T15:26:23.640Z,96362.90
2019-01-27T15:28:51.164Z,96371.67
2019-01-27T15:31:18.626Z,96372.57
2019-01-27T15:33:46.051Z,96379.67
2019-01-27T15:36:13.551Z,96384.54
2019-01-27T15:38:40.974Z,96395.58
2019-01-27T15:41:08.443Z,96409.70
2019-01-27T15:43:35.898Z,96410.59
2019-01-27T15:46:03.332Z,96419.13
2019-01-27T15:48:31.773Z,96433.28
2019-01-27T15:50:59.735Z,96432.52
2019-01-27T15:53:26.744Z,96437.62
2019-01-27T15:55:54.202Z,96448.50
2019-01-27T15:58:21.644Z,96454.59
2019-01-27T16:00:49.112Z,96464.05
2019-01-27T16:03:17.613Z,96468.28
2019-01-27T16:05:45.116Z,96482.33
2019-01-27T16:08:12.586Z,96481.66
2019-01-27T16:10:40.043Z,96490.13
2019-01-27T16:13:07.498Z,96502.27
2019-01-27T16:15:35.021Z,96499.11
2019-01-27T16:18:02.453Z,96511.53
2019-01-27T16:20:29.931Z,96525.23
2019-01-27T16:23:12.949Z,96535.22
2019-01-27T16:25:41.478Z,96545.22
2019-01-27T16:28:08.593Z,96554.56
2019-01-27T16:30:37.430Z,96556.78
2019-01-27T16:33:05.387Z,96559.31
2019-01-27T16:35:32.916Z,96565.52
2019-01-27T16:38:00.402Z,96571.27
2019-01-27T16:40:27.943Z,96572.40
2019-01-27T16:42:55.521Z,96573.41
2019-01-27T16:45:22.918Z,96579.27
2019-01-27T16:47:50.365Z,96583.17
2019-01-27T16:50:17.882Z,96579.69
2019-01-27T16:52:45.297Z,96583.91
2019-01-27T16:55:13.514Z,96596.48
2019-01-27T16:57:40.980Z,96598.47
2019-01-27T17:00:09.980Z,96602.02
2019-01-27T17:02:37.423Z,96604.86
2019-01-27T17:05:04.896Z,96605.83
2019-01-27T17:07:32.337Z,96607.32
2019-01-27T17:09:59.820Z,96607.34
2019-01-27T17:12:27.258Z,96610.17
2019-01-27T17:14:54.727Z,96612.45
2019-01-27T17:17:22.166Z,96615.95
2019-01-27T17:19:49.588Z,96619.95
2019-01-27T17:22:17.023Z,96624.56
2019-01-27T17:24:44.550Z,96628.72
2019-01-27T17:27:12.093Z,96633.20
2019-01-27T17:29:39.577Z,96634.81
2019-01-27T17:32:08.045Z,96638.58
2019-01-27T17:34:35.482Z,96640.78
2019-01-27T17:37:02.916Z,96644.73
2019-01-27T17:39:30.381Z,96644.47
2019-01-27T17:41:57.836Z,96654.24
2019-01-27T17:44:25.299Z,96663.97
2019-01-27T17:46:53.348Z,96668.14
2019-01-27T17:49:21.362Z,96671.84
2019-01-27T17:51:48.814Z,96674.63
2019-01-27T17:54:16.281Z,96672.45
2019-01-27T17:56:43.734Z,96665.61
2019-01-27T17:59:11.676Z,96677.34
2019-01-27T18:01:41.242Z,96676.02
2019-01-27T18:04:10.651Z,96673.95
2019-01-27T18:06:54.672Z,96680.84
2019-01-27T18:09:22.144Z,96691.98
2019-01-27T18:11:51.402Z,96688.88
2019-01-27T18:14:18.875Z,96696.78
2019-01-27T18:16:46.359Z,96690.51
2019-01-27T18:19:13.785Z,96702.81
2019-01-27T18:21:41.255Z,96701.00
2019-01-27T18:24:09.330Z,96706.47
2019-01-27T18:26:36.770Z,96706.58
2019-01-27T18:29:04.216Z,96710.52
2019-01-27T18:31:33.399Z,96713.75
2019-01-27T18:34:00.957Z,96718.27
2019-01-27T18:36:28.717Z,96715.56
2019-01-27T18:38:56.249Z,96727.39
2019-01-27T18:41:23.760Z,96727.30
2019-01-27T18:43:51.242Z,96735.71
2019-01-27T18:46:18.717Z,96739.19
2019-01-27T18:48:46.159Z,96743.34
2019-01-27T18:51:13.627Z,96738.71
2019-01-27T18:53:56.963Z,96742.12
2019-01-27T18:56:26.329Z,96753.42
2019-01-27T18:58:59.431Z,96762.12
2019-01-27T19:01:45.666Z,96765.88
2019-01-27T19:04:13.548Z,96761.22
2019-01-27T19:06:41.850Z,96773.05
2019-01-27T19:09:25.924Z,96775.97
2019-01-27T19:11:58.763Z,96769.83
2019-01-27T19:14:28.630Z,96777.09
2019-01-27T19:16:59.488Z,96777.06
2019-01-27T19:19:29.814Z,96772.79
2019-01-27T19:21:58.058Z,96774.70
2019-01-27T19:24:30.031Z,96776.34
2019-01-27T19:27:00.622Z,96783.62
2019-01-27T19:29:33.058Z,96787.52
2019-01-27T19:32:00.552Z,96785.64
2019-01-27T19:34:29.612Z,96791.12
2019-01-27T19:37:11.971Z,96792.19
2019-01-27T19:39:39.974Z,96801.83
2019-01-27T19:42:08.453Z,96799.50
2019-01-27T19:44:50.775Z,96794.28
2019-01-27T19:47:23.894Z,96803.48
2019-01-27T19:49:51.370Z,96801.72
2019-01-27T19:52:24.389Z,96800.61
2019-01-27T19:55:06.845Z,96805.53
2019-01-27T19:57:34.340Z,96809.34
2019-01-27T20:00:04.185Z,96814.52
2019-01-27T20:02:33.968Z,96816.00
2019-01-27T20:05:21.292Z,96818.75
2019-01-27T20:07:48.780Z,96820.80
2019-01-27T20:10:20.164Z,96813.78
2019-01-27T20:12:54.725Z,96825.61
2019-01-27T20:15:27.790Z,96832.32
2019-01-27T20:17:56.716Z,96831.69
2019-01-27T20:20:26.662Z,96830.17
2019-01-27T20:22:54.167Z,96835.44
2019-01-27T20:25:21.624Z,96840.44
2019-01-27T20:27:50.867Z,96827.98
2019-01-27T20:30:23.886Z,96828.16
2019-01-27T20:33:06.271Z,96835.45
2019-01-27T20:35:51.800Z,96837.54
2019-01-27T20:38:32.173Z,96833.25
2019-01-27T20:41:01.340Z,96845.11
2019-01-27T20:43:32.894Z,96838.09
2019-01-27T20:46:01.515Z,96835.38
2019-01-27T20:48:40.878Z,96835.33
2019-01-27T20:51:09.090Z,96834.91
2019-01-27T20:53:37.887Z,96841.13
2019-01-27T20:56:17.009Z,96832.53
2019-01-27T20:58:44.636Z,96832.75
2019-01-27T21:01:27.411Z,96830.45
2019-01-27T21:03:56.001Z,96828.16
2019-01-27T21:06:34.443Z,96839.11
2019-01-27T21:09:02.446Z,96828.59
2019-01-27T21:11:30.307Z,96836.47
2019-01-27T21:14:01.305Z,96823.86
2019-01-27T21:16:44.030Z,96837.63
2019-01-27T21:19:13.852Z,96832.46
2019-01-27T21:21:41.389Z,96840.20
2019-01-27T21:24:08.954Z,96836.23
2019-01-27T21:26:36.663Z,96835.38
2019-01-27T21:29:04.276Z,96838.27
2019-01-27T21:31:32.656Z,96830.34
2019-01-27T21:34:00.304Z,96832.12
2019-01-27T21:36:28.057Z,96839.02
2019-01-27T21:38:55.925Z,96830.13
2019-01-27T21:41:23.764Z,96824.70
2019-01-27T21:43:51.696Z,96830.89
2019-01-27T21:46:19.504Z,96824.83
2019-01-27T21:48:47.070Z,96825.83
2019-01-27T21:51:14.757Z,96819.09
2019-01-27T21:53:42.319Z,96817.08
2019-01-27T21:56:09.877Z,96822.84
2019-01-27T21:58:37.379Z,96821.28
2019-01-27T22:01:05.026Z,96816.50
2019-01-27T22:03:32.788Z,96815.98
2019-01-27T22:06:00.630Z,96814.08
2019-01-27T22:08:28.162Z,96808.63
2019-01-27T22:10:55.593Z,96810.40
2019-01-27T22:13:23.127Z,96817.21
2019-01-27T22:15:50.591Z,96805.63
2019-01-27T22:18:18.018Z,96809.98
2019-01-27T22:20:45.471Z,96806.34
2019-01-27T22:23:12.945Z,96803.78
2019-01-27T22:25:40.406Z,96811.08
2019-01-27T22:28:07.890Z,96817.94
2019-01-27T22:30:35.366Z,96813.53
2019-01-27T22:33:02.855Z,96810.48
2019-01-27T22:35:30.295Z,96813.70
2019-01-27T22:37:57.785Z,96804.94
2019-01-27T22:40:25.302Z,96818.10
2019-01-27T22:42:52.792Z,96815.98
2019-01-27T22:45:20.357Z,96810.95
2019-01-27T22:47:47.896Z,96807.01
2019-01-27T22:50:15.804Z,96805.36
2019-01-27T22:52:43.281Z,96802.44
2019-01-27T22:55:10.763Z,96804.00
2019-01-27T22:57:38.211Z,96802.66
2019-01-27T23:00:12.142Z,96806.77
2019-01-27T23:02:39.634Z,96799.44
2019-01-27T23:05:07.146Z,96808.75
2019-01-27T23:07:34.610Z,96800.20
2019-01-27T23:10:02.116Z,96804.97
2019-01-27T23:12:30.162Z,96804.00
2019-01-27T23:14:57.698Z,96803.88
2019-01-27T23:17:25.141Z,96801.55
2019-01-27T23:19:52.588Z,96802.78
2019-01-27T23:22:20.019Z,96797.91
2019-01-27T23:24:47.815Z,96796.85
2019-01-27T23:27:15.266Z,96803.91
2019-01-27T23:29:42.711Z,96801.69
2019-01-27T23:32:10.147Z,96799.90
2019-01-27T23:34:37.607Z,96797.23
2019-01-27T23:37:05.076Z,96807.61
2019-01-27T23:39:32.513Z,96805.62
2019-01-27T23:41:59.978Z,96808.41
2019-01-27T23:44:27.437Z,96802.65
2019-01-27T23:46:54.863Z,96799.44
2019-01-27T23:49:22.337Z,96803.92
2019-01-27T23:51:49.824Z,96802.82
2019-01-27T23:54:17.306Z,96796.05
2019-01-27T23:56:44.794Z,96805.57
2019-01-27T23:59:12.245Z,96801.59
